Time;durP1;ratioP1;P1;durP2;ratioP2;P2;SDS_P1;SDS_P2;PMS_P1;PMS_P2;Temp;Humidity;BMP_temperature;BMP_pressure;BME280_temperature;BME280_humidity;BME280_pressure;Samples;Min_cycle;Max_cycle;Signal;HPM_P1;HPM_P2
2023/01/24 00:02:04;;;;;;;22.98;13.38;;;4.10;99.90;;;;;;4938143;29;20040;-71
2023/01/24 00:04:29;;;;;;;20.95;12.55;;;4.00;99.90;;;;;;4931005;29;20393;-71
2023/01/24 00:06:55;;;;;;;20.08;12.32;;;4.00;99.90;;;;;;4910304;29;20192;-71
2023/01/24 00:09:21;;;;;;;21.15;12.70;;;4.10;99.90;;;;;;4928970;29;20061;-71
2023/01/24 00:11:46;;;;;;;22.23;12.98;;;4.00;99.90;;;;;;4921501;29;20035;-71
2023/01/24 00:14:12;;;;;;;19.38;13.30;;;4.10;99.90;;;;;;4938377;28;20031;-71
2023/01/24 00:16:37;;;;;;;22.00;13.52;;;4.10;99.90;;;;;;4932107;29;20369;-71
2023/01/24 00:19:03;;;;;;;22.73;12.90;;;4.20;99.90;;;;;;4923893;29;20110;-71
2023/01/24 00:21:29;;;;;;;21.55;13.38;;;4.10;99.90;;;;;;4927790;29;20032;-71
2023/01/24 00:23:55;;;;;;;22.10;12.85;;;4.10;99.90;;;;;;4897397;29;20127;-71
2023/01/24 00:26:24;;;;;;;20.20;13.40;;;4.10;99.90;;;;;;4906781;29;20428;-71
2023/01/24 00:28:49;;;;;;;24.25;13.43;;;4.10;99.90;;;;;;4918977;29;20110;-70
2023/01/24 00:31:15;;;;;;;23.38;13.20;;;4.10;99.90;;;;;;4919733;29;20175;-71
2023/01/24 00:33:41;;;;;;;25.83;13.45;;;4.20;99.90;;;;;;4921300;29;20130;-71
2023/01/24 00:36:07;;;;;;;22.55;13.02;;;4.20;99.90;;;;;;4900052;29;20032;-72
2023/01/24 00:38:33;;;;;;;20.00;13.13;;;4.20;99.90;;;;;;4919648;29;20027;-71
2023/01/24 00:40:59;;;;;;;19.95;12.63;;;4.20;99.90;;;;;;4916322;29;20046;-71
2023/01/24 00:43:26;;;;;;;19.55;12.77;;;4.20;99.90;;;;;;4925140;29;20032;-71
2023/01/24 00:45:52;;;;;;;23.02;12.73;;;4.10;99.90;;;;;;4923319;29;20035;-71
2023/01/24 00:48:18;;;;;;;22.23;12.60;;;4.10;99.90;;;;;;4924177;29;20144;-72
2023/01/24 00:50:43;;;;;;;21.25;12.50;;;4.20;99.90;;;;;;4923664;29;20039;-71
2023/01/24 00:53:09;;;;;;;20.35;12.88;;;4.10;99.90;;;;;;4928367;29;20043;-71
2023/01/24 00:55:44;;;;;;;23.15;13.77;;;4.20;99.90;;;;;;4927573;29;20035;-71
2023/01/24 00:58:10;;;;;;;27.75;13.10;;;4.10;99.90;;;;;;4905663;29;20588;-71
2023/01/24 01:00:38;;;;;;;22.75;12.95;;;4.20;99.90;;;;;;4919113;29;20870;-71
2023/01/24 01:03:04;;;;;;;19.48;12.52;;;4.20;99.90;;;;;;4917702;29;20450;-71
2023/01/24 01:05:30;;;;;;;21.38;12.98;;;4.20;99.90;;;;;;4911241;29;20518;-71
2023/01/24 01:07:56;;;;;;;21.42;13.38;;;4.20;99.90;;;;;;4920591;29;20036;-71
2023/01/24 01:10:21;;;;;;;23.27;13.23;;;4.10;99.90;;;;;;4919440;29;20031;-71
2023/01/24 01:12:47;;;;;;;21.77;12.18;;;4.20;99.90;;;;;;4934495;29;20048;-71
2023/01/24 01:15:12;;;;;;;19.67;12.77;;;4.10;99.90;;;;;;4918389;29;20035;-71
2023/01/24 01:17:38;;;;;;;21.63;12.15;;;4.20;99.90;;;;;;4923756;29;20027;-71
2023/01/24 01:20:04;;;;;;;19.45;12.45;;;4.20;99.90;;;;;;4925055;29;20031;-72
2023/01/24 01:22:30;;;;;;;21.67;12.30;;;4.10;99.90;;;;;;4936617;29;20062;-71
2023/01/24 01:24:56;;;;;;;17.42;11.48;;;4.10;99.90;;;;;;4933576;29;20079;-71
2023/01/24 01:27:21;;;;;;;20.88;12.30;;;4.20;99.90;;;;;;4929769;29;20037;-71
2023/01/24 01:29:47;;;;;;;20.70;11.98;;;4.20;99.90;;;;;;4925613;29;20073;-71
2023/01/24 01:32:13;;;;;;;19.67;11.95;;;4.20;99.90;;;;;;4908040;29;20107;-71
2023/01/24 01:34:38;;;;;;;20.38;12.77;;;4.20;99.90;;;;;;4914914;29;20036;-71
2023/01/24 01:37:04;;;;;;;20.33;12.20;;;4.20;99.90;;;;;;4941331;29;20454;-71
2023/01/24 01:39:29;;;;;;;20.83;12.57;;;4.20;99.90;;;;;;4937881;29;20402;-71
2023/01/24 01:41:55;;;;;;;20.45;11.73;;;4.30;99.90;;;;;;4922309;29;20171;-71
2023/01/24 01:44:40;;;;;;;18.70;10.85;;;4.20;99.90;;;;;;4925451;29;20514;-72
2023/01/24 01:47:23;;;;;;;18.38;11.15;;;4.20;99.90;;;;;;4931610;29;20028;-71
2023/01/24 01:50:21;;;;;;;20.70;11.57;;;4.20;99.90;;;;;;4924660;29;20027;-71
2023/01/24 01:52:48;;;;;;;19.25;11.38;;;4.20;99.90;;;;;;4917162;29;20505;-71
2023/01/24 01:55:19;;;;;;;17.83;11.07;;;4.20;99.90;;;;;;4922081;29;20141;-71
2023/01/24 01:57:48;;;;;;;18.55;11.45;;;4.30;99.90;;;;;;4920689;29;20537;-71
2023/01/24 02:00:17;;;;;;;17.77;11.43;;;4.30;99.90;;;;;;4906571;29;20039;-71
2023/01/24 02:02:48;;;;;;;20.38;10.38;;;4.30;99.90;;;;;;4933463;29;20042;-71
2023/01/24 02:07:59;;;;;;;18.15;10.63;;;4.30;99.90;;;;;;5021876;23;20035;-75
2023/01/24 02:11:37;;;;;;;18.52;10.95;;;4.30;99.90;;;;;;4959009;23;20174;-74
2023/01/24 02:13:12;;;;;;;21.52;11.52;;;4.30;99.90;;;;;;4917049;28;20344;-74
2023/01/24 02:18:36;;;;;;;16.45;10.48;;;4.40;99.90;;;;;;4924166;28;20855;-74
2023/01/24 02:21:07;;;;;;;18.92;11.20;;;4.40;99.90;;;;;;4920915;29;20072;-74
2023/01/24 02:23:42;;;;;;;19.83;11.23;;;4.40;99.90;;;;;;4913473;29;20035;-74
2023/01/24 02:26:08;;;;;;;17.38;10.60;;;4.40;99.90;;;;;;4944718;23;20320;-74
2023/01/24 02:28:34;;;;;;;17.02;10.48;;;4.30;99.90;;;;;;4932897;28;20550;-74
2023/01/24 02:31:01;;;;;;;16.58;10.32;;;4.30;99.90;;;;;;4915114;29;20105;-75
2023/01/24 02:33:27;;;;;;;20.88;11.35;;;4.30;99.90;;;;;;4928664;28;20035;-75
2023/01/24 02:36:14;;;;;;;16.98;10.63;;;4.30;99.90;;;;;;4913085;29;20478;-75
2023/01/24 02:38:43;;;;;;;17.33;10.45;;;4.30;99.90;;;;;;4921896;29;20114;-74
2023/01/24 02:41:09;;;;;;;19.17;11.00;;;4.20;99.90;;;;;;4922633;29;20027;-74
2023/01/24 02:43:41;;;;;;;20.77;11.40;;;4.10;99.90;;;;;;4940715;28;20121;-74
2023/01/24 02:46:06;;;;;;;15.35;10.15;;;4.10;99.90;;;;;;4937635;28;20034;-74
2023/01/24 02:48:32;;;;;;;17.95;10.73;;;4.20;99.90;;;;;;4934463;28;20498;-74
2023/01/24 02:53:41;;;;;;;17.63;10.90;;;4.20;99.90;;;;;;4936679;28;20082;-75
2023/01/24 02:58:53;;;;;;;15.57;10.27;;;4.30;99.90;;;;;;4934584;29;20046;-74
2023/01/24 03:01:20;;;;;;;16.05;10.80;;;4.40;99.90;;;;;;4911085;29;20047;-75
2023/01/24 03:03:47;;;;;;;17.00;10.30;;;4.40;99.90;;;;;;5318384;23;20426;-78
2023/01/24 03:06:14;;;;;;;19.15;10.40;;;4.40;99.90;;;;;;4918984;29;20522;-76
2023/01/24 03:08:40;;;;;;;18.73;10.63;;;4.50;99.90;;;;;;4907361;29;20032;-79
2023/01/24 03:11:07;;;;;;;14.98;10.48;;;4.50;99.90;;;;;;4913355;29;20028;-78
2023/01/24 03:35:30;;;;;;;15.95;9.82;;;4.50;99.90;;;;;;4920054;29;20035;-79
2023/01/24 03:40:40;;;;;;;18.30;10.60;;;4.50;99.90;;;;;;4910731;29;20107;-78
2023/01/24 03:43:06;;;;;;;18.45;10.43;;;4.50;99.90;;;;;;4912191;29;20035;-80
2023/01/24 03:45:37;;;;;;;17.88;11.35;;;4.50;99.90;;;;;;4921698;29;20118;-79
2023/01/24 03:48:12;;;;;;;17.43;10.77;;;4.60;99.90;;;;;;4920932;29;20036;-78
2023/01/24 03:53:26;;;;;;;19.15;10.70;;;4.60;99.90;;;;;;4919028;29;20575;-78
2023/01/24 03:55:54;;;;;;;17.77;11.27;;;4.60;99.90;;;;;;4920017;29;20390;-79
2023/01/24 03:58:20;;;;;;;17.00;10.38;;;4.60;99.90;;;;;;4920285;29;20027;-78
2023/01/24 04:00:46;;;;;;;19.85;10.45;;;4.60;99.90;;;;;;4919179;29;20095;-79
2023/01/24 04:03:12;;;;;;;20.85;10.13;;;4.60;99.90;;;;;;4914033;29;20071;-77
2023/01/24 04:05:37;;;;;;;16.70;9.95;;;4.60;99.90;;;;;;4916481;29;20044;-79
2023/01/24 04:08:03;;;;;;;14.02;10.00;;;4.70;99.90;;;;;;4919328;29;20410;-78
2023/01/24 04:10:29;;;;;;;17.08;10.57;;;4.60;99.90;;;;;;4916756;29;20135;-78
2023/01/24 04:12:55;;;;;;;15.88;9.52;;;4.70;99.90;;;;;;4918373;29;20035;-79
2023/01/24 04:15:24;;;;;;;16.23;10.60;;;4.70;99.90;;;;;;4905065;29;20039;-78
2023/01/24 04:17:50;;;;;;;16.77;10.13;;;4.60;99.90;;;;;;4916025;29;20059;-79
2023/01/24 04:20:17;;;;;;;16.92;9.40;;;4.60;99.90;;;;;;4913058;29;20431;-79
2023/01/24 04:22:43;;;;;;;15.63;10.18;;;4.60;99.90;;;;;;4921513;29;20399;-78
2023/01/24 04:25:09;;;;;;;16.55;10.38;;;4.70;99.90;;;;;;4922010;29;20467;-78
2023/01/24 04:27:36;;;;;;;18.73;10.35;;;4.70;99.90;;;;;;4922938;29;20098;-78
2023/01/24 04:30:06;;;;;;;15.80;9.45;;;4.70;99.90;;;;;;4920593;29;20027;-78
2023/01/24 04:32:32;;;;;;;16.75;9.95;;;4.60;99.90;;;;;;4911634;29;20562;-80
2023/01/24 04:34:58;;;;;;;17.20;10.10;;;4.70;99.90;;;;;;4922099;29;20040;-79
2023/01/24 04:37:23;;;;;;;17.90;9.95;;;4.60;99.90;;;;;;4904371;29;20138;-78
2023/01/24 04:39:49;;;;;;;16.05;10.02;;;4.60;99.90;;;;;;4922140;29;20076;-79
2023/01/24 04:42:14;;;;;;;17.48;10.57;;;4.70;99.90;;;;;;4919472;29;20662;-78
2023/01/24 04:44:40;;;;;;;16.58;10.18;;;4.60;99.90;;;;;;4919680;29;20036;-78
2023/01/24 04:47:06;;;;;;;14.57;9.75;;;4.60;99.90;;;;;;4920121;29;20020;-77
2023/01/24 04:49:31;;;;;;;15.00;10.63;;;4.70;99.90;;;;;;4920129;29;20034;-79
2023/01/24 04:51:57;;;;;;;15.48;9.98;;;4.70;99.90;;;;;;4923060;29;20032;-78
2023/01/24 04:54:23;;;;;;;16.83;11.35;;;4.70;99.90;;;;;;4921061;29;20035;-78
2023/01/24 04:56:48;;;;;;;15.75;10.23;;;4.80;99.90;;;;;;4916536;29;20039;-78
2023/01/24 04:59:14;;;;;;;16.55;10.48;;;4.80;99.90;;;;;;4919780;29;20107;-78
2023/01/24 05:01:40;;;;;;;17.85;10.35;;;4.70;99.90;;;;;;4920681;29;20114;-79
2023/01/24 05:04:06;;;;;;;14.05;9.93;;;4.80;99.90;;;;;;4921686;29;20426;-80
2023/01/24 05:06:33;;;;;;;17.75;10.30;;;4.70;99.90;;;;;;4918652;29;20138;-78
2023/01/24 05:08:59;;;;;;;15.20;9.88;;;4.60;99.90;;;;;;4916804;29;20042;-78
2023/01/24 05:11:25;;;;;;;16.30;10.15;;;4.70;99.90;;;;;;4924282;29;20027;-78
2023/01/24 05:13:51;;;;;;;17.58;10.60;;;4.70;99.90;;;;;;4921711;29;20471;-78
2023/01/24 05:16:17;;;;;;;14.48;9.55;;;4.70;99.90;;;;;;4922364;29;20035;-79
2023/01/24 05:18:42;;;;;;;15.40;9.95;;;4.80;99.90;;;;;;4917291;29;20028;-78
2023/01/24 05:21:11;;;;;;;15.40;9.88;;;4.70;99.90;;;;;;4904288;29;20032;-78
2023/01/24 05:23:37;;;;;;;15.65;9.77;;;4.60;99.90;;;;;;4921389;29;20523;-79
2023/01/24 05:26:03;;;;;;;16.45;10.23;;;4.70;99.90;;;;;;4923212;29;20082;-78
2023/01/24 05:28:30;;;;;;;19.77;10.98;;;4.60;99.90;;;;;;4922896;29;20084;-78
2023/01/24 05:31:00;;;;;;;18.08;10.93;;;4.60;99.90;;;;;;4919416;29;20032;-77
2023/01/24 05:33:26;;;;;;;15.77;11.15;;;4.60;99.90;;;;;;4915148;29;20040;-80
2023/01/24 05:36:06;;;;;;;16.35;10.43;;;4.60;99.90;;;;;;4916753;29;20056;-78
2023/01/24 05:38:32;;;;;;;15.25;10.65;;;4.60;99.90;;;;;;4919734;29;20495;-78
2023/01/24 05:41:03;;;;;;;15.40;10.60;;;4.60;99.90;;;;;;4923581;29;20032;-78
2023/01/24 05:43:29;;;;;;;17.03;11.23;;;4.70;99.90;;;;;;4916361;29;20059;-78
2023/01/24 05:46:04;;;;;;;15.35;10.63;;;4.60;99.90;;;;;;4920164;29;20066;-78
2023/01/24 05:48:29;;;;;;;17.00;11.20;;;4.70;99.90;;;;;;4921071;29;20368;-78
2023/01/24 05:50:59;;;;;;;14.40;10.20;;;4.70;99.90;;;;;;4919640;29;20450;-78
2023/01/24 05:53:27;;;;;;;16.77;10.65;;;4.80;99.90;;;;;;4919451;29;20028;-78
2023/01/24 05:56:00;;;;;;;14.57;10.63;;;4.80;99.90;;;;;;4920307;29;20483;-77
2023/01/24 05:58:28;;;;;;;15.77;10.63;;;4.80;99.90;;;;;;4921574;29;21636;-78
2023/01/24 06:00:53;;;;;;;13.27;10.15;;;4.80;99.90;;;;;;4922761;29;20028;-78
2023/01/24 06:03:19;;;;;;;13.70;10.20;;;4.80;99.90;;;;;;4919376;29;20046;-78
2023/01/24 06:05:50;;;;;;;14.55;9.82;;;4.80;99.90;;;;;;4920000;29;20590;-78
2023/01/24 06:08:16;;;;;;;15.13;11.27;;;4.80;99.90;;;;;;4910814;29;20491;-78
2023/01/24 06:10:42;;;;;;;15.13;10.45;;;4.70;99.90;;;;;;4918573;29;20036;-78
2023/01/24 06:13:08;;;;;;;15.00;11.05;;;4.80;99.90;;;;;;4905187;29;20028;-78
2023/01/24 06:15:34;;;;;;;16.88;11.35;;;4.80;99.90;;;;;;4904746;29;20063;-78
2023/01/24 06:17:59;;;;;;;16.10;10.13;;;4.90;99.90;;;;;;4922447;29;20059;-78
2023/01/24 06:20:25;;;;;;;16.25;11.02;;;4.80;99.90;;;;;;4916515;29;20035;-79
2023/01/24 06:23:05;;;;;;;16.48;10.82;;;4.80;99.90;;;;;;4922142;29;20393;-77
2023/01/24 06:25:32;;;;;;;16.77;11.38;;;4.80;99.90;;;;;;4918525;29;20574;-78
2023/01/24 06:27:58;;;;;;;16.92;11.48;;;4.80;99.90;;;;;;4919544;29;20035;-77
2023/01/24 06:30:23;;;;;;;21.88;12.50;;;4.70;99.90;;;;;;4919829;29;20035;-77
2023/01/24 06:33:02;;;;;;;16.30;11.90;;;4.70;99.90;;;;;;4921461;29;20034;-78
2023/01/24 06:35:46;;;;;;;14.02;10.82;;;4.80;99.90;;;;;;4922136;29;20066;-77
2023/01/24 06:38:20;;;;;;;19.92;12.75;;;4.80;99.90;;;;;;4922796;29;20039;-78
2023/01/24 06:40:48;;;;;;;17.30;11.80;;;4.80;99.90;;;;;;4919964;29;20039;-78
2023/01/24 06:43:14;;;;;;;16.42;11.80;;;4.70;99.90;;;;;;4921039;29;20067;-78
2023/01/24 06:45:40;;;;;;;16.50;11.48;;;4.70;99.90;;;;;;4904205;29;20063;-77
2023/01/24 06:48:05;;;;;;;16.58;11.48;;;4.70;99.90;;;;;;4914796;29;20062;-78
2023/01/24 06:50:32;;;;;;;20.10;12.65;;;4.80;99.90;;;;;;4921660;29;20071;-79
2023/01/24 06:52:57;;;;;;;16.83;12.00;;;4.70;99.90;;;;;;4921932;29;20037;-79
2023/01/24 06:55:24;;;;;;;15.38;10.90;;;4.70;99.90;;;;;;4920649;29;20032;-78
2023/01/24 06:57:57;;;;;;;20.17;12.27;;;4.70;99.90;;;;;;4921192;29;20138;-77
2023/01/24 07:00:22;;;;;;;16.00;11.20;;;4.80;99.90;;;;;;4920152;29;20040;-78
2023/01/24 07:02:55;;;;;;;18.75;11.73;;;4.80;99.90;;;;;;4921354;29;20036;-78
2023/01/24 07:05:21;;;;;;;14.30;10.73;;;4.80;99.90;;;;;;4920444;29;20334;-78
2023/01/24 07:07:47;;;;;;;44.60;23.73;;;4.80;99.90;;;;;;4920317;29;20244;-78
2023/01/24 07:10:12;;;;;;;18.15;12.10;;;4.80;99.90;;;;;;4922824;29;20086;-77
2023/01/24 07:12:41;;;;;;;18.70;11.75;;;4.80;99.90;;;;;;4924539;29;20060;-78
2023/01/24 07:15:07;;;;;;;17.70;11.65;;;4.70;99.90;;;;;;4925380;29;20375;-79
2023/01/24 07:17:32;;;;;;;17.63;12.30;;;4.80;99.90;;;;;;4929365;29;20031;-78
2023/01/24 07:19:58;;;;;;;17.77;11.55;;;4.80;99.90;;;;;;4925634;29;20039;-78
2023/01/24 07:22:25;;;;;;;16.95;11.52;;;4.80;99.90;;;;;;4922417;29;20040;-79
2023/01/24 07:24:51;;;;;;;17.40;11.45;;;4.80;99.90;;;;;;4927340;29;20054;-78
2023/01/24 07:27:17;;;;;;;19.45;10.98;;;4.80;99.90;;;;;;4918785;29;20039;-78
2023/01/24 07:29:43;;;;;;;18.13;11.80;;;4.80;99.90;;;;;;4925524;29;20090;-78
2023/01/24 07:32:09;;;;;;;18.73;10.90;;;4.80;99.90;;;;;;4919604;29;20962;-78
2023/01/24 07:34:35;;;;;;;16.05;11.00;;;4.80;99.90;;;;;;4920977;29;20024;-78
2023/01/24 07:37:00;;;;;;;17.48;11.32;;;4.90;99.90;;;;;;4923827;29;20031;-79
2023/01/24 07:39:29;;;;;;;17.65;11.35;;;5.00;99.90;;;;;;4924086;29;20678;-79
2023/01/24 07:41:55;;;;;;;16.85;11.95;;;4.90;99.90;;;;;;4922431;29;20272;-78
2023/01/24 07:44:20;;;;;;;16.02;11.30;;;4.90;99.90;;;;;;4920206;29;20051;-78
2023/01/24 07:46:46;;;;;;;16.60;11.88;;;4.80;99.90;;;;;;4920684;29;20339;-78
2023/01/24 07:49:11;;;;;;;20.23;12.32;;;4.80;99.90;;;;;;4921046;29;20149;-78
2023/01/24 07:51:37;;;;;;;18.00;11.57;;;4.80;99.90;;;;;;4922885;29;20031;-77
2023/01/24 07:54:03;;;;;;;17.27;11.85;;;4.80;99.90;;;;;;4922132;29;20055;-78
2023/01/24 07:56:28;;;;;;;17.77;11.85;;;4.80;99.90;;;;;;4921324;29;20031;-79
2023/01/24 07:58:55;;;;;;;17.05;11.60;;;4.90;99.90;;;;;;4921898;29;20413;-79
2023/01/24 08:01:22;;;;;;;17.25;11.20;;;4.80;99.90;;;;;;4922383;29;20026;-80
2023/01/24 08:03:48;;;;;;;19.05;11.60;;;4.80;99.90;;;;;;4923729;29;20207;-80
2023/01/24 08:06:13;;;;;;;16.13;10.88;;;4.90;99.90;;;;;;4923229;29;20428;-79
2023/01/24 08:08:39;;;;;;;16.20;10.75;;;4.90;99.90;;;;;;4920735;29;20147;-77
2023/01/24 08:11:04;;;;;;;17.55;11.70;;;4.90;99.90;;;;;;4904531;29;20078;-78
2023/01/24 08:13:30;;;;;;;19.00;11.15;;;5.00;99.90;;;;;;4922331;29;20353;-79
2023/01/24 08:15:55;;;;;;;16.33;12.00;;;5.00;99.90;;;;;;4902794;29;20028;-79
2023/01/24 08:18:21;;;;;;;17.17;11.77;;;5.00;99.90;;;;;;4921584;29;20032;-78
2023/01/24 08:20:48;;;;;;;17.58;11.50;;;5.00;99.90;;;;;;4918109;29;20413;-80
2023/01/24 08:23:14;;;;;;;18.15;10.57;;;4.90;99.90;;;;;;4922063;29;20050;-79
2023/01/24 08:25:39;;;;;;;15.32;10.85;;;5.00;99.90;;;;;;4905759;29;20040;-79
2023/01/24 08:28:05;;;;;;;17.08;11.20;;;5.10;99.90;;;;;;4922404;29;20098;-80
2023/01/24 08:30:31;;;;;;;19.95;11.27;;;5.20;99.90;;;;;;4920527;29;20032;-76
2023/01/24 08:33:01;;;;;;;14.07;10.63;;;5.10;99.90;;;;;;4918634;29;20451;-78
2023/01/24 08:35:27;;;;;;;;;;;5.10;99.90;;;;;;4237249;28;10000736;-78
2023/01/24 08:37:52;;;;;;;17.52;10.48;;;5.10;99.90;;;;;;4921391;29;19966;-78
2023/01/24 08:40:19;;;;;;;16.95;10.38;;;5.10;99.90;;;;;;4920403;29;20067;-78
2023/01/24 08:42:44;;;;;;;17.90;10.57;;;5.00;99.90;;;;;;4921328;29;20031;-78
2023/01/24 08:45:10;;;;;;;16.80;11.18;;;5.00;99.90;;;;;;4921387;29;20048;-78
2023/01/24 08:47:36;;;;;;;15.98;10.15;;;5.00;99.90;;;;;;4922550;29;20032;-78
2023/01/24 08:50:02;;;;;;;18.35;11.00;;;5.00;99.90;;;;;;4921181;29;20036;-78
2023/01/24 08:52:27;;;;;;;15.73;10.13;;;5.00;99.90;;;;;;4920357;29;20032;-79
2023/01/24 08:54:53;;;;;;;15.68;10.55;;;5.10;99.90;;;;;;4918438;29;20543;-78
2023/01/24 08:57:18;;;;;;;17.95;10.32;;;5.20;99.90;;;;;;4916077;29;20047;-78
2023/01/24 08:59:44;;;;;;;18.10;10.45;;;5.30;99.90;;;;;;4912239;29;20563;-78
2023/01/24 09:02:13;;;;;;;17.13;10.73;;;5.30;99.90;;;;;;4921271;29;20126;-78
2023/01/24 09:04:39;;;;;;;14.57;9.15;;;5.30;99.90;;;;;;4920495;29;20066;-78
2023/01/24 09:07:05;;;;;;;15.75;10.30;;;5.30;99.90;;;;;;4909419;29;20483;-78
2023/01/24 09:09:30;;;;;;;15.32;10.27;;;5.30;99.90;;;;;;4926237;29;20158;-79
2023/01/24 09:11:56;;;;;;;16.63;10.65;;;5.30;99.90;;;;;;4924895;29;20035;-79
2023/01/24 09:14:22;;;;;;;16.23;9.32;;;5.30;99.90;;;;;;4923232;29;20038;-79
2023/01/24 09:16:48;;;;;;;18.23;11.55;;;5.30;99.90;;;;;;4924222;29;20478;-78
2023/01/24 09:19:13;;;;;;;19.63;10.95;;;5.30;99.90;;;;;;4923129;29;20043;-78
2023/01/24 09:21:39;;;;;;;18.08;10.77;;;5.30;99.90;;;;;;4925407;29;20028;-78
2023/01/24 09:24:05;;;;;;;18.90;11.07;;;5.40;99.90;;;;;;4914108;29;20131;-78
2023/01/24 09:26:30;;;;;;;16.80;10.02;;;5.40;99.90;;;;;;4910392;29;20120;-78
2023/01/24 09:28:56;;;;;;;14.43;9.60;;;5.50;99.90;;;;;;4931350;29;20475;-77
2023/01/24 09:31:22;;;;;;;17.17;9.80;;;5.50;99.90;;;;;;4925146;29;20027;-77
2023/01/24 09:33:47;;;;;;;15.07;9.95;;;5.50;99.90;;;;;;4925636;29;20151;-73
2023/01/24 09:36:13;;;;;;;14.27;9.63;;;5.60;99.90;;;;;;4922543;29;20038;-74
2023/01/24 09:38:39;;;;;;;13.68;9.25;;;5.70;99.90;;;;;;4904644;29;20071;-75
2023/01/24 09:41:26;;;;;;;15.95;9.48;;;5.60;99.90;;;;;;4926717;29;20042;-75
2023/01/24 09:43:58;;;;;;;15.23;9.27;;;5.70;99.90;;;;;;4917434;29;20047;-74
2023/01/24 09:46:30;;;;;;;14.50;9.85;;;5.70;99.90;;;;;;4918449;29;20135;-74
2023/01/24 09:49:10;;;;;;;;;;;5.60;99.90;;;;;;4919646;29;20034;-74
2023/01/24 09:51:43;;;;;;;10.90;7.90;;;5.70;99.90;;;;;;4922568;29;19922;-76
2023/01/24 09:54:17;;;;;;;15.00;9.65;;;5.70;99.90;;;;;;4906847;29;20088;-74
2023/01/24 09:56:45;;;;;;;14.93;9.35;;;5.80;99.90;;;;;;4926585;29;20549;-74
2023/01/24 09:59:29;;;;;;;17.00;9.80;;;5.80;99.90;;;;;;4918713;29;20038;-75
2023/01/24 10:01:56;;;;;;;12.38;8.30;;;5.80;99.90;;;;;;4918918;29;20572;-74
2023/01/24 10:04:31;;;;;;;12.35;8.80;;;5.80;99.90;;;;;;4903085;29;20062;-74
2023/01/24 10:07:18;;;;;;;15.95;10.00;;;5.80;99.90;;;;;;4898904;29;20028;-74
2023/01/24 10:10:08;;;;;;;13.02;9.13;;;5.80;99.90;;;;;;4905102;29;20039;-75
2023/01/24 10:12:56;;;;;;;13.85;9.13;;;5.80;99.90;;;;;;4896722;29;20032;-75
2023/01/24 10:15:53;;;;;;;15.30;9.15;;;5.90;99.90;;;;;;4888988;29;20036;-75
2023/01/24 10:18:46;;;;;;;14.13;7.38;;;5.80;99.90;;;;;;4898139;29;20077;-75
2023/01/24 10:21:24;;;;;;;14.57;6.85;;;5.80;99.90;;;;;;4894101;29;20760;-75
2023/01/24 10:24:04;;;;;;;13.45;7.85;;;5.90;99.90;;;;;;4898159;29;20048;-75
2023/01/24 10:26:47;;;;;;;13.18;7.65;;;5.90;99.90;;;;;;4897581;29;20074;-75
2023/01/24 10:29:30;;;;;;;12.77;8.25;;;5.90;99.90;;;;;;4897561;29;20067;-75
2023/01/24 10:32:13;;;;;;;13.04;7.76;;;5.80;99.90;;;;;;4558704;28;10001186;-76
2023/01/24 10:34:49;;;;;;;13.93;8.25;;;5.80;99.90;;;;;;4891334;29;20040;-75
2023/01/24 10:37:22;;;;;;;13.30;9.13;;;5.80;99.90;;;;;;4898642;29;20020;-75
2023/01/24 10:39:48;;;;;;;17.00;10.07;;;5.80;99.90;;;;;;4897735;29;20099;-74
2023/01/24 10:42:25;;;;;;;14.10;9.50;;;5.80;99.90;;;;;;4898351;29;20122;-74
2023/01/24 10:44:53;;;;;;;18.20;9.70;;;5.90;99.90;;;;;;4894710;29;20610;-73
2023/01/24 10:47:43;;;;;;;14.68;10.45;;;5.90;99.90;;;;;;4900738;29;20040;-76
2023/01/24 10:50:17;;;;;;;11.45;9.13;;;6.00;99.90;;;;;;4915940;29;20128;-75
2023/01/24 10:52:46;;;;;;;15.20;9.32;;;6.10;99.90;;;;;;4900128;29;20028;-76
2023/01/24 10:55:36;;;;;;;13.35;9.48;;;6.10;99.90;;;;;;4894272;29;20521;-75
2023/01/24 10:58:21;;;;;;;15.35;10.30;;;6.20;99.90;;;;;;4889639;29;20036;-75
2023/01/24 11:00:54;;;;;;;13.68;9.57;;;6.20;99.90;;;;;;4888062;29;20119;-76
2023/01/24 11:03:25;;;;;;;16.50;9.35;;;6.20;99.90;;;;;;4887692;29;20869;-75
2023/01/24 11:05:53;;;;;;;13.57;9.38;;;6.30;99.90;;;;;;4907300;29;20049;-76
2023/01/24 11:08:22;;;;;;;13.13;9.40;;;6.30;99.90;;;;;;4920763;29;20507;-75
2023/01/24 11:10:56;;;;;;;14.95;9.40;;;6.20;99.90;;;;;;4916580;29;20476;-75
2023/01/24 11:13:35;;;;;;;14.00;9.75;;;6.30;99.90;;;;;;4915371;29;20475;-75
2023/01/24 11:16:20;;;;;;;11.15;7.07;;;6.30;99.90;;;;;;4920798;29;20035;-75
2023/01/24 11:18:51;;;;;;;12.00;7.43;;;6.10;99.90;;;;;;4921802;29;20035;-74
2023/01/24 11:21:19;;;;;;;9.15;6.57;;;6.20;99.90;;;;;;4915086;29;20232;-75
2023/01/24 11:23:57;;;;;;;9.40;6.63;;;6.30;99.90;;;;;;4917339;29;20044;-74
2023/01/24 11:26:32;;;;;;;11.55;7.30;;;6.40;99.90;;;;;;4915954;29;20028;-75
2023/01/24 11:29:16;;;;;;;16.40;9.38;;;6.50;99.90;;;;;;4918631;29;20506;-75
2023/01/24 11:31:57;;;;;;;14.95;9.05;;;6.30;98.20;;;;;;4918557;29;20044;-75
2023/01/24 11:34:31;;;;;;;14.50;9.25;;;6.30;99.90;;;;;;4918331;29;20092;-75
2023/01/24 11:37:20;;;;;;;12.38;8.60;;;6.20;99.90;;;;;;4922022;29;20594;-75
2023/01/24 11:40:02;;;;;;;14.93;9.30;;;6.20;99.90;;;;;;4917944;29;20383;-76
2023/01/24 11:42:43;;;;;;;13.90;8.10;;;6.30;99.90;;;;;;4920708;29;20491;-75
2023/01/24 11:45:22;;;;;;;9.75;7.30;;;6.30;99.90;;;;;;4905446;29;20071;-75
2023/01/24 11:48:08;;;;;;;11.10;8.23;;;6.30;99.90;;;;;;4916266;29;20028;-75
2023/01/24 11:50:44;;;;;;;11.40;8.15;;;6.40;99.90;;;;;;4908943;29;20126;-75
2023/01/24 11:53:25;;;;;;;12.93;8.75;;;6.40;99.40;;;;;;4917331;29;20483;-75
2023/01/24 11:56:10;;;;;;;11.35;8.52;;;6.40;98.20;;;;;;4920274;29;20039;-74
2023/01/24 11:58:47;;;;;;;12.82;8.55;;;6.60;99.90;;;;;;4919743;29;20076;-75
2023/01/24 12:01:28;;;;;;;14.23;10.02;;;6.60;99.40;;;;;;4901998;29;20408;-75
2023/01/24 12:04:13;;;;;;;10.57;9.03;;;6.60;98.80;;;;;;4927257;28;20062;-76
2023/01/24 12:06:49;;;;;;;11.82;8.88;;;6.70;95.30;;;;;;4901166;29;20066;-75
2023/01/24 12:09:21;;;;;;;11.40;8.38;;;6.70;98.30;;;;;;4915855;29;20035;-75
2023/01/24 12:12:19;;;;;;;9.73;6.72;;;6.60;97.90;;;;;;4919619;29;20031;-75
2023/01/24 12:15:02;;;;;;;8.50;5.50;;;6.50;95.90;;;;;;4918619;23;20137;-73
2023/01/24 12:17:58;;;;;;;10.27;5.05;;;6.40;99.70;;;;;;4926706;29;20031;-73
2023/01/24 12:20:41;;;;;;;7.68;5.03;;;6.30;97.50;;;;;;4899225;29;20060;-73
2023/01/24 12:23:10;;;;;;;9.45;6.70;;;6.50;97.40;;;;;;4894642;29;20042;-73
2023/01/24 12:25:39;;;;;;;16.88;10.32;;;6.60;98.70;;;;;;4896563;29;20051;-74
2023/01/24 12:28:10;;;;;;;12.75;9.07;;;6.50;94.50;;;;;;4896213;29;20028;-73
2023/01/24 12:30:42;;;;;;;13.80;9.33;;;6.40;97.60;;;;;;4885872;29;20500;-73
2023/01/24 12:33:34;;;;;;;12.80;8.60;;;6.40;98.40;;;;;;4892048;29;20028;-73
2023/01/24 12:36:13;;;;;;;12.23;7.90;;;6.50;96.60;;;;;;4911964;29;20062;-73
2023/01/24 12:38:48;;;;;;;11.13;7.15;;;6.70;97.30;;;;;;4900619;29;20036;-73
2023/01/24 12:41:33;;;;;;;9.27;6.10;;;6.60;99.60;;;;;;4906320;29;20179;-73
2023/01/24 12:44:17;;;;;;;9.68;6.15;;;6.40;94.00;;;;;;4552736;29;10000271;-73
2023/01/24 12:47:01;;;;;;;9.10;5.57;;;6.20;95.20;;;;;;4889661;29;20817;-72
2023/01/24 12:49:45;;;;;;;8.82;5.10;;;6.20;98.70;;;;;;4893641;29;20115;-73
2023/01/24 12:52:23;;;;;;;8.60;5.95;;;6.30;97.80;;;;;;4911710;29;20048;-72
2023/01/24 12:55:08;;;;;;;6.95;5.97;;;6.30;97.00;;;;;;4904386;29;20084;-73
2023/01/24 12:58:13;;;;;;;11.07;7.45;;;6.30;97.20;;;;;;4898966;29;20427;-73
2023/01/24 13:00:57;;;;;;;14.13;8.75;;;6.40;96.70;;;;;;4900193;29;20115;-73
2023/01/24 13:03:53;;;;;;;9.65;7.50;;;6.60;96.30;;;;;;4902160;29;20127;-73
2023/01/24 13:06:40;;;;;;;11.02;7.55;;;6.60;99.90;;;;;;4899179;29;20035;-73
2023/01/24 13:09:12;;;;;;;11.13;7.80;;;6.70;96.80;;;;;;4895136;29;20024;-73
2023/01/24 13:11:45;;;;;;;10.95;8.07;;;6.70;96.50;;;;;;4897178;29;20036;-73
2023/01/24 13:14:43;;;;;;;10.77;7.38;;;6.60;96.50;;;;;;4890632;29;20036;-74
2023/01/24 13:17:20;;;;;;;8.18;5.88;;;6.60;96.30;;;;;;4860628;29;20131;-73
2023/01/24 13:20:39;;;;;;;7.00;5.50;;;6.50;97.00;;;;;;4887386;29;20591;-73
2023/01/24 13:23:29;;;;;;;9.43;5.40;;;6.50;97.10;;;;;;4848675;29;20116;-73
2023/01/24 13:26:07;;;;;;;8.65;6.43;;;6.70;98.40;;;;;;4851494;29;20051;-73
2023/01/24 13:28:41;;;;;;;10.20;7.00;;;6.90;97.20;;;;;;4893333;29;20088;-73
2023/01/24 13:31:31;;;;;;;8.63;6.18;;;6.90;92.00;;;;;;4897981;29;20488;-73
2023/01/24 13:34:13;;;;;;;11.98;7.70;;;6.80;93.30;;;;;;4885475;29;20098;-74
2023/01/24 13:36:38;;;;;;;;;;;6.70;97.40;;;;;;4895177;29;20122;-73
2023/01/24 13:39:06;;;;;;;9.55;5.95;;;6.50;93.80;;;;;;4881961;29;20484;-73